createdAt,value
2017-12-17T00:02:02.908Z,17.50
2017-12-17T00:04:31.036Z,16.25
2017-12-17T00:06:59.264Z,17.62
2017-12-17T00:09:27.375Z,16.52
2017-12-17T00:11:56.260Z,16.70
2017-12-17T00:14:25.184Z,17.12
2017-12-17T00:16:53.307Z,15.50
2017-12-17T00:19:21.423Z,18.08
2017-12-17T00:21:49.688Z,13.98
2017-12-17T00:24:18.560Z,14.55
2017-12-17T00:26:47.441Z,15.48
2017-12-17T00:29:15.590Z,15.10
2017-12-17T00:31:43.713Z,15.95
2017-12-17T00:34:12.596Z,15.85
2017-12-17T00:36:41.529Z,16.70
2017-12-17T00:39:09.643Z,16.10
2017-12-17T00:41:37.772Z,16.60
2017-12-17T00:44:05.888Z,16.45
2017-12-17T00:46:34.007Z,17.50
2017-12-17T00:49:02.118Z,18.45
2017-12-17T00:51:30.257Z,15.07
2017-12-17T00:53:58.372Z,17.23
2017-12-17T00:56:26.972Z,16.42
2017-12-17T00:58:55.100Z,17.52
2017-12-17T01:01:23.256Z,16.83
2017-12-17T01:03:51.401Z,17.20
2017-12-17T01:06:20.296Z,17.98
2017-12-17T01:08:49.187Z,19.85
2017-12-17T01:11:18.077Z,17.50
2017-12-17T01:13:46.971Z,16.35
2017-12-17T01:16:15.843Z,17.27
2017-12-17T01:18:44.073Z,18.00
2017-12-17T01:21:12.233Z,20.10
2017-12-17T01:23:40.340Z,18.45
2017-12-17T01:26:08.480Z,18.15
2017-12-17T01:28:36.624Z,17.05
2017-12-17T01:31:05.537Z,18.40
2017-12-17T01:33:33.686Z,19.83
2017-12-17T01:36:02.592Z,17.52
2017-12-17T01:38:31.488Z,18.77
2017-12-17T01:40:59.604Z,17.77
2017-12-17T01:43:27.748Z,16.15
2017-12-17T01:45:55.876Z,17.05
2017-12-17T01:48:23.984Z,17.95
2017-12-17T01:50:52.121Z,16.42
2017-12-17T01:53:20.230Z,17.58
2017-12-17T01:55:48.486Z,17.60
2017-12-17T01:58:17.382Z,17.00
2017-12-17T02:00:46.260Z,16.55
2017-12-17T02:03:14.390Z,17.92
2017-12-17T02:05:42.507Z,19.52
2017-12-17T02:08:10.693Z,14.32
2017-12-17T02:10:39.569Z,15.30
2017-12-17T02:13:07.681Z,16.77
2017-12-17T02:15:35.816Z,14.57
2017-12-17T02:18:04.033Z,14.82
2017-12-17T02:20:32.180Z,17.60
2017-12-17T02:23:01.058Z,13.90
2017-12-17T02:25:29.188Z,14.95
2017-12-17T02:27:57.336Z,14.10
2017-12-17T02:30:25.464Z,14.13
2017-12-17T02:32:53.730Z,14.52
2017-12-17T02:35:21.872Z,14.77
2017-12-17T02:37:50.023Z,14.87
2017-12-17T02:40:19.626Z,14.32
2017-12-17T02:42:48.529Z,14.65
2017-12-17T02:45:16.700Z,14.02
2017-12-17T02:47:45.665Z,14.20
2017-12-17T02:50:13.825Z,14.57
2017-12-17T02:52:41.977Z,14.75
2017-12-17T02:55:10.162Z,13.52
2017-12-17T02:57:38.290Z,14.63
2017-12-17T03:00:07.214Z,13.57
2017-12-17T03:02:35.397Z,13.98
2017-12-17T03:05:03.552Z,14.73
2017-12-17T03:07:31.714Z,13.23
2017-12-17T03:09:59.878Z,12.77
2017-12-17T03:12:28.805Z,12.30
2017-12-17T03:14:56.958Z,13.82
2017-12-17T03:17:25.166Z,11.90
2017-12-17T03:19:53.304Z,12.88
2017-12-17T03:22:21.449Z,13.85
2017-12-17T03:24:50.420Z,14.40
2017-12-17T03:27:18.650Z,16.12
2017-12-17T03:29:46.802Z,14.68
2017-12-17T03:32:15.835Z,13.15
2017-12-17T03:34:43.953Z,12.75
2017-12-17T03:37:12.861Z,13.73
2017-12-17T03:39:41.825Z,13.40
2017-12-17T03:42:09.967Z,13.30
2017-12-17T03:44:38.099Z,14.80
2017-12-17T03:47:07.064Z,12.73
2017-12-17T03:49:35.187Z,13.88
2017-12-17T03:52:03.306Z,13.13
2017-12-17T03:54:31.476Z,16.30
2017-12-17T03:56:59.649Z,13.40
2017-12-17T03:59:27.833Z,14.35
2017-12-17T04:01:55.993Z,13.82
2017-12-17T04:04:24.112Z,14.85
2017-12-17T04:06:52.316Z,12.52
2017-12-17T04:09:20.473Z,14.52
2017-12-17T04:11:48.613Z,14.90
2017-12-17T04:14:16.737Z,14.07
2017-12-17T04:16:44.932Z,13.85
2017-12-17T04:19:13.069Z,13.00
2017-12-17T04:21:41.226Z,13.85
2017-12-17T04:24:10.149Z,14.73
2017-12-17T04:26:38.297Z,14.05
2017-12-17T04:29:06.440Z,14.77
2017-12-17T04:31:34.593Z,14.95
2017-12-17T04:34:03.250Z,14.68
2017-12-17T04:36:31.364Z,16.08
2017-12-17T04:38:59.524Z,14.80
2017-12-17T04:41:27.632Z,13.43
2017-12-17T04:43:56.543Z,14.13
2017-12-17T04:46:24.784Z,14.15
2017-12-17T04:48:52.916Z,12.93
2017-12-17T04:51:21.647Z,15.63
2017-12-17T04:53:49.797Z,15.00
2017-12-17T04:56:17.914Z,14.77
2017-12-17T04:58:46.830Z,13.60
2017-12-17T05:01:14.964Z,15.88
2017-12-17T05:03:43.084Z,16.37
2017-12-17T05:06:11.196Z,15.07
2017-12-17T05:08:39.385Z,14.40
2017-12-17T05:11:07.529Z,16.48
2017-12-17T05:13:35.673Z,15.13
2017-12-17T05:16:03.944Z,14.30
2017-12-17T05:18:32.065Z,15.43
2017-12-17T05:21:00.197Z,14.50
2017-12-17T05:23:28.355Z,14.23
2017-12-17T05:25:56.489Z,15.07
2017-12-17T05:28:24.609Z,14.85
2017-12-17T05:30:52.777Z,13.30
2017-12-17T05:33:21.649Z,13.90
2017-12-17T05:35:50.537Z,15.45
2017-12-17T05:38:19.456Z,13.68
2017-12-17T05:40:47.589Z,13.68
2017-12-17T05:43:15.728Z,13.43
2017-12-17T05:45:43.888Z,15.18
2017-12-17T05:48:12.003Z,14.23
2017-12-17T05:50:40.119Z,13.30
2017-12-17T05:53:08.363Z,13.57
2017-12-17T05:55:36.524Z,16.00
2017-12-17T05:58:04.672Z,11.95
2017-12-17T06:00:32.837Z,14.45
2017-12-17T06:03:00.975Z,13.02
2017-12-17T06:05:29.873Z,17.45
2017-12-17T06:07:58.840Z,14.70
2017-12-17T06:10:26.985Z,14.57
2017-12-17T06:12:55.132Z,15.63
2017-12-17T06:15:23.361Z,18.73
2017-12-17T06:17:51.474Z,15.93
2017-12-17T06:20:19.600Z,17.02
2017-12-17T06:22:47.771Z,15.95
2017-12-17T06:25:16.269Z,16.60
2017-12-17T06:27:45.225Z,15.43
2017-12-17T06:30:13.354Z,16.05
2017-12-17T06:32:42.238Z,17.45
2017-12-17T06:35:11.128Z,15.70
2017-12-17T06:37:40.065Z,18.70
2017-12-17T06:40:08.205Z,17.48
2017-12-17T06:42:36.344Z,16.98
2017-12-17T06:45:04.537Z,16.33
2017-12-17T06:47:33.437Z,16.23
2017-12-17T06:50:02.390Z,16.30
2017-12-17T06:52:30.532Z,16.50
2017-12-17T06:54:58.672Z,16.90
2017-12-17T06:57:27.571Z,16.27
2017-12-17T06:59:56.534Z,16.17
2017-12-17T07:02:24.669Z,15.32
2017-12-17T07:04:52.831Z,16.25
2017-12-17T07:07:20.983Z,17.80
2017-12-17T07:09:49.893Z,16.90
2017-12-17T07:12:18.053Z,18.15
2017-12-17T07:14:47.017Z,17.70
2017-12-17T07:17:15.167Z,16.52
2017-12-17T07:19:43.356Z,15.75
2017-12-17T07:22:11.557Z,18.65
2017-12-17T07:24:40.461Z,16.15
2017-12-17T07:27:09.472Z,18.65
2017-12-17T07:29:37.632Z,18.95
2017-12-17T07:32:05.782Z,19.00
2017-12-17T07:34:33.946Z,18.55
2017-12-17T07:37:02.145Z,18.62
2017-12-17T07:39:31.044Z,18.10
2017-12-17T07:41:59.945Z,17.95
2017-12-17T07:44:28.131Z,17.10
2017-12-17T07:46:56.284Z,17.33
2017-12-17T07:49:24.464Z,18.65
2017-12-17T07:51:52.701Z,17.98
2017-12-17T07:54:20.900Z,18.48
2017-12-17T07:56:49.870Z,19.52
2017-12-17T07:59:18.044Z,19.37
2017-12-17T08:01:46.229Z,19.35
2017-12-17T08:04:15.160Z,20.67
2017-12-17T08:06:43.373Z,19.50
2017-12-17T08:09:11.609Z,19.83
2017-12-17T08:11:39.783Z,21.35
2017-12-17T08:14:07.964Z,20.58
2017-12-17T08:16:36.098Z,18.42
2017-12-17T08:19:05.061Z,22.30
2017-12-17T08:21:33.265Z,20.05
2017-12-17T08:24:01.428Z,19.70
2017-12-17T08:26:29.584Z,19.92
2017-12-17T08:28:57.793Z,19.45
2017-12-17T08:31:26.740Z,19.60
2017-12-17T08:33:54.921Z,18.75
2017-12-17T08:36:23.070Z,19.73
2017-12-17T08:38:51.196Z,20.37
2017-12-17T08:41:19.348Z,20.75
2017-12-17T08:43:47.620Z,19.90
2017-12-17T08:46:15.736Z,20.05
2017-12-17T08:48:44.624Z,19.83
2017-12-17T08:51:13.541Z,21.15
2017-12-17T08:53:41.692Z,19.92
2017-12-17T08:56:09.857Z,19.05
2017-12-17T08:58:38.028Z,18.48
2017-12-17T09:01:06.165Z,19.95
2017-12-17T09:03:34.353Z,18.33
2017-12-17T09:06:02.577Z,18.17
2017-12-17T09:08:30.752Z,19.15
2017-12-17T09:10:58.904Z,17.50
2017-12-17T09:13:27.843Z,20.85
2017-12-17T09:15:56.001Z,18.90
2017-12-17T09:18:24.148Z,19.42
2017-12-17T09:20:53.149Z,20.00
2017-12-17T09:23:21.253Z,19.73
2017-12-17T09:25:49.424Z,17.55
2017-12-17T09:28:17.651Z,18.67
2017-12-17T09:30:45.833Z,22.37
2017-12-17T09:33:14.781Z,16.95
2017-12-17T09:35:42.950Z,18.65
2017-12-17T09:38:11.128Z,19.83
2017-12-17T09:40:39.313Z,20.58
2017-12-17T09:43:07.520Z,20.17
2017-12-17T09:45:35.676Z,20.27
2017-12-17T09:48:03.833Z,20.52
2017-12-17T09:50:32.017Z,21.60
2017-12-17T09:53:00.173Z,21.33
2017-12-17T09:55:28.317Z,20.85
2017-12-17T09:57:56.562Z,22.58
2017-12-17T10:00:24.688Z,20.27
2017-12-17T10:02:52.830Z,20.92
2017-12-17T10:05:21.837Z,19.23
2017-12-17T10:07:49.960Z,21.17
2017-12-17T10:10:18.085Z,20.25
2017-12-17T10:12:46.229Z,21.87
2017-12-17T10:15:14.365Z,20.80
2017-12-17T10:17:42.487Z,21.30
2017-12-17T10:20:11.400Z,22.05
2017-12-17T10:22:39.526Z,23.67
2017-12-17T10:25:07.652Z,21.08
2017-12-17T10:27:35.825Z,20.85
2017-12-17T10:30:03.950Z,22.50
2017-12-17T10:32:32.055Z,20.52
2017-12-17T10:35:00.800Z,19.90
2017-12-17T10:37:29.032Z,20.73
2017-12-17T10:39:57.152Z,19.85
2017-12-17T10:42:25.384Z,19.62
2017-12-17T10:44:53.513Z,17.92
2017-12-17T10:47:21.633Z,18.10
2017-12-17T10:49:49.824Z,20.52
2017-12-17T10:52:17.937Z,18.80
2017-12-17T10:54:46.821Z,18.42
2017-12-17T10:57:15.065Z,17.87
2017-12-17T10:59:43.205Z,16.70
2017-12-17T11:02:11.340Z,18.77
2017-12-17T11:04:39.481Z,17.92
2017-12-17T11:07:07.592Z,18.25
2017-12-17T11:09:35.727Z,16.02
2017-12-17T11:12:03.907Z,16.87
2017-12-17T11:14:32.040Z,20.20
2017-12-17T11:17:00.223Z,16.42
2017-12-17T11:19:29.141Z,15.60
2017-12-17T11:21:57.252Z,17.58
2017-12-17T11:24:25.381Z,17.20
2017-12-17T11:26:53.524Z,17.10
2017-12-17T11:29:22.414Z,17.92
2017-12-17T11:31:51.322Z,14.82
2017-12-17T11:34:19.462Z,17.83
2017-12-17T11:36:47.602Z,17.12
2017-12-17T11:39:15.725Z,17.48
2017-12-17T11:41:44.644Z,18.15
2017-12-17T11:44:12.796Z,18.35
2017-12-17T11:46:40.920Z,18.65
2017-12-17T11:49:09.058Z,20.02
2017-12-17T11:51:37.193Z,19.27
2017-12-17T11:54:05.312Z,18.95
2017-12-17T11:56:33.660Z,18.37
2017-12-17T11:59:05.726Z,21.23
2017-12-17T12:01:36.969Z,17.33
2017-12-17T12:04:06.922Z,19.87
2017-12-17T12:06:35.101Z,20.35
2017-12-17T12:09:07.115Z,17.10
2017-12-17T12:11:37.904Z,18.10
2017-12-17T12:14:09.618Z,18.85
2017-12-17T12:16:37.760Z,19.33
2017-12-17T12:19:05.886Z,17.08
2017-12-17T12:21:38.728Z,21.60
2017-12-17T12:24:08.672Z,20.65
2017-12-17T12:26:42.231Z,16.85
2017-12-17T12:29:11.224Z,17.95
2017-12-17T12:31:39.985Z,18.55
2017-12-17T12:34:09.750Z,18.12
2017-12-17T12:36:40.419Z,18.40
2017-12-17T12:39:09.908Z,17.60
2017-12-17T12:41:39.192Z,18.80
2017-12-17T12:44:08.552Z,17.50
2017-12-17T12:46:39.988Z,18.05
2017-12-17T12:49:08.113Z,16.08
2017-12-17T12:51:38.518Z,15.95
2017-12-17T12:54:08.513Z,17.80
2017-12-17T12:56:38.585Z,34.47
2017-12-17T12:59:21.695Z,19.65
2017-12-17T13:01:52.144Z,14.95
2017-12-17T13:04:21.571Z,15.93
2017-12-17T13:06:50.460Z,14.82
2017-12-17T13:09:20.256Z,16.33
2017-12-17T13:11:48.956Z,17.98
2017-12-17T13:14:17.117Z,16.80
2017-12-17T13:16:45.238Z,18.35
2017-12-17T13:19:14.158Z,15.95
2017-12-17T13:21:42.876Z,16.60
2017-12-17T13:24:12.741Z,19.52
2017-12-17T13:26:46.853Z,17.65
2017-12-17T13:29:14.968Z,19.95
2017-12-17T13:31:47.160Z,18.25
2017-12-17T13:34:17.779Z,19.75
2017-12-17T13:36:47.133Z,20.55
2017-12-17T13:39:16.040Z,19.52
2017-12-17T13:41:45.860Z,18.83
2017-12-17T13:44:13.992Z,15.45
2017-12-17T13:46:46.174Z,17.85
2017-12-17T13:49:17.449Z,19.08
2017-12-17T13:51:45.612Z,17.15
2017-12-17T13:54:15.892Z,16.90
2017-12-17T13:56:45.900Z,12.60
2017-12-17T13:59:14.081Z,15.25
2017-12-17T14:01:42.319Z,13.85
2017-12-17T14:04:10.491Z,14.65
2017-12-17T14:06:38.768Z,14.45
2017-12-17T14:09:06.948Z,15.35
2017-12-17T14:11:35.089Z,15.63
2017-12-17T14:14:03.995Z,14.18
2017-12-17T14:16:32.181Z,13.95
2017-12-17T14:19:00.308Z,14.52
2017-12-17T14:21:28.432Z,13.38
2017-12-17T14:23:56.615Z,13.48
2017-12-17T14:26:24.778Z,14.35
2017-12-17T14:28:52.889Z,14.48
2017-12-17T14:31:21.126Z,14.98
2017-12-17T14:33:49.303Z,14.77
2017-12-17T14:36:17.394Z,13.27
2017-12-17T14:38:55.371Z,13.88
2017-12-17T14:41:23.494Z,13.05
2017-12-17T14:43:51.644Z,13.55
2017-12-17T14:46:19.784Z,14.20
2017-12-17T14:48:47.905Z,14.63
2017-12-17T14:51:16.811Z,13.88
2017-12-17T14:53:44.960Z,11.90
2017-12-17T14:56:13.081Z,13.52
2017-12-17T14:58:41.994Z,13.20
2017-12-17T15:01:10.169Z,12.95
2017-12-17T15:03:38.302Z,13.30
2017-12-17T15:06:06.521Z,11.07
2017-12-17T15:08:34.745Z,11.10
2017-12-17T15:11:02.904Z,14.82
2017-12-17T15:13:31.045Z,11.32
2017-12-17T15:15:59.188Z,13.20
2017-12-17T15:18:28.128Z,13.23
2017-12-17T15:20:56.232Z,12.73
2017-12-17T15:23:24.382Z,14.48
2017-12-17T15:25:52.539Z,14.50
2017-12-17T15:28:20.666Z,13.20
2017-12-17T15:30:48.837Z,14.30
2017-12-17T15:33:16.966Z,14.30
2017-12-17T15:35:45.116Z,14.65
2017-12-17T15:38:13.356Z,14.13
2017-12-17T15:40:41.479Z,15.85
2017-12-17T15:43:09.603Z,14.23
2017-12-17T15:45:37.752Z,15.38
2017-12-17T15:48:05.900Z,15.60
2017-12-17T15:50:34.025Z,18.02
2017-12-17T15:53:02.185Z,16.55
2017-12-17T15:55:30.315Z,15.57
2017-12-17T15:57:58.456Z,17.85
2017-12-17T16:00:27.397Z,15.38
2017-12-17T16:02:55.545Z,16.60
2017-12-17T16:05:23.815Z,16.12
2017-12-17T16:07:52.714Z,16.23
2017-12-17T16:10:20.858Z,15.40
2017-12-17T16:12:48.981Z,16.40
2017-12-17T16:15:17.144Z,14.73
2017-12-17T16:17:45.268Z,17.08
2017-12-17T16:20:13.408Z,15.43
2017-12-17T16:22:41.563Z,15.73
2017-12-17T16:25:09.688Z,17.55
2017-12-17T16:27:37.805Z,17.27
2017-12-17T16:30:05.969Z,17.20
2017-12-17T16:32:34.084Z,16.52
2017-12-17T16:35:02.215Z,16.23
2017-12-17T16:37:31.218Z,17.45
2017-12-17T16:39:59.336Z,17.45
2017-12-17T16:42:27.455Z,17.17
2017-12-17T16:44:55.600Z,16.42
2017-12-17T16:47:23.740Z,16.95
2017-12-17T16:49:51.905Z,19.98
2017-12-17T16:52:20.067Z,16.20
2017-12-17T16:54:48.200Z,18.58
2017-12-17T16:57:16.315Z,16.70
2017-12-17T16:59:44.474Z,18.40
2017-12-17T17:02:12.612Z,19.48
2017-12-17T17:04:40.766Z,19.48
2017-12-17T17:07:08.941Z,21.30
2017-12-17T17:09:37.083Z,21.58
2017-12-17T17:12:05.229Z,19.67
2017-12-17T17:14:34.156Z,22.58
2017-12-17T17:17:02.281Z,21.90
2017-12-17T17:19:30.412Z,21.58
2017-12-17T17:21:58.567Z,19.85
2017-12-17T17:24:26.684Z,18.83
2017-12-17T17:26:54.830Z,18.90
2017-12-17T17:29:22.987Z,20.62
2017-12-17T17:31:51.085Z,19.30
2017-12-17T17:34:19.197Z,19.30
2017-12-17T17:36:47.362Z,17.85
2017-12-17T17:39:15.482Z,17.42
2017-12-17T17:41:43.600Z,18.05
2017-12-17T17:44:12.014Z,16.25
2017-12-17T17:46:40.922Z,17.77
2017-12-17T17:49:09.387Z,15.73
2017-12-17T17:51:38.305Z,15.38
2017-12-17T17:54:06.416Z,16.50
2017-12-17T17:56:34.577Z,15.90
2017-12-17T17:59:02.815Z,15.82
2017-12-17T18:01:30.928Z,13.88
2017-12-17T18:03:59.076Z,15.27
2017-12-17T18:06:27.257Z,12.55
2017-12-17T18:08:55.413Z,10.98
2017-12-17T18:11:23.568Z,11.38
2017-12-17T18:13:52.463Z,12.15
2017-12-17T18:16:21.380Z,11.50
2017-12-17T18:18:49.491Z,12.37
2017-12-17T18:21:17.661Z,11.00
2017-12-17T18:23:45.793Z,10.55
2017-12-17T18:26:13.928Z,11.20
2017-12-17T18:28:42.834Z,10.40
2017-12-17T18:31:11.746Z,10.30
2017-12-17T18:33:39.857Z,9.02
2017-12-17T18:36:08.099Z,10.30
2017-12-17T18:38:36.232Z,8.50
2017-12-17T18:41:04.401Z,9.70
2017-12-17T18:43:32.567Z,10.63
2017-12-17T18:46:00.745Z,10.65
2017-12-17T18:48:28.895Z,10.73
2017-12-17T18:50:57.145Z,11.73
2017-12-17T18:53:25.320Z,11.35
2017-12-17T18:55:53.466Z,13.07
2017-12-17T18:58:22.483Z,11.60
2017-12-17T19:00:50.655Z,12.00
2017-12-17T19:03:18.816Z,13.45
2017-12-17T19:05:47.776Z,10.80
2017-12-17T19:08:16.002Z,10.50
2017-12-17T19:10:44.229Z,10.82
2017-12-17T19:13:12.451Z,14.68
2017-12-17T19:15:40.629Z,11.70
2017-12-17T19:18:08.812Z,12.27
2017-12-17T19:20:37.025Z,13.20
2017-12-17T19:23:05.162Z,12.90
2017-12-17T19:25:33.341Z,13.50
2017-12-17T19:28:01.516Z,12.90
2017-12-17T19:30:29.660Z,12.15
2017-12-17T19:32:57.848Z,11.20
2017-12-17T19:35:26.151Z,11.68
2017-12-17T19:37:54.313Z,13.32
2017-12-17T19:40:22.484Z,11.32
2017-12-17T19:42:50.706Z,10.80
2017-12-17T19:45:18.872Z,11.15
2017-12-17T19:47:47.044Z,10.70
2017-12-17T19:50:15.495Z,12.80
2017-12-17T19:52:44.441Z,10.35
2017-12-17T19:55:13.372Z,10.32
2017-12-17T19:57:41.588Z,10.07
2017-12-17T20:00:09.801Z,10.18
2017-12-17T20:02:37.956Z,10.27
2017-12-17T20:05:06.907Z,9.93
2017-12-17T20:07:35.049Z,10.10
2017-12-17T20:10:03.203Z,10.90
2017-12-17T20:12:32.153Z,9.25
2017-12-17T20:15:00.330Z,9.52
2017-12-17T20:17:28.534Z,10.77
2017-12-17T20:19:56.720Z,11.85
2017-12-17T20:22:25.610Z,9.00
2017-12-17T20:24:54.495Z,10.57
2017-12-17T20:27:23.414Z,8.93
2017-12-17T20:29:51.552Z,9.05
2017-12-17T20:32:19.716Z,7.90
2017-12-17T20:34:47.948Z,9.02
2017-12-17T20:37:16.056Z,8.63
2017-12-17T20:39:44.213Z,8.60
2017-12-17T20:42:12.382Z,8.15
2017-12-17T20:44:40.495Z,9.60
2017-12-17T20:47:08.604Z,9.32
2017-12-17T20:49:36.788Z,10.75
2017-12-17T20:52:04.908Z,10.00
2017-12-17T20:54:33.043Z,8.93
2017-12-17T20:57:01.225Z,10.98
2017-12-17T20:59:29.381Z,10.02
2017-12-17T21:01:57.512Z,9.30
2017-12-17T21:04:25.676Z,9.98
2017-12-17T21:06:53.795Z,10.02
2017-12-17T21:09:21.940Z,8.75
2017-12-17T21:11:50.872Z,8.23
2017-12-17T21:14:19.004Z,9.50
2017-12-17T21:16:47.895Z,8.77
2017-12-17T21:19:16.804Z,8.60
2017-12-17T21:21:45.692Z,8.77
2017-12-17T21:24:14.572Z,9.70
2017-12-17T21:26:43.481Z,11.48
2017-12-17T21:29:11.605Z,9.77
2017-12-17T21:31:39.749Z,8.50
2017-12-17T21:34:07.864Z,10.10
2017-12-17T21:36:35.984Z,8.32
2017-12-17T21:39:04.122Z,9.13
2017-12-17T21:41:33.058Z,8.07
2017-12-17T21:44:01.188Z,9.25
2017-12-17T21:46:30.084Z,9.10
2017-12-17T21:48:58.986Z,8.73
2017-12-17T21:51:27.872Z,8.27
2017-12-17T21:53:56.773Z,8.18
2017-12-17T21:56:25.127Z,8.10
2017-12-17T21:58:53.266Z,8.45
2017-12-17T22:01:21.397Z,8.50
2017-12-17T22:03:50.293Z,7.97
2017-12-17T22:06:18.409Z,7.82
2017-12-17T22:08:46.542Z,7.50
2017-12-17T22:11:14.664Z,7.35
2017-12-17T22:13:42.789Z,7.75
2017-12-17T22:16:10.911Z,7.07
2017-12-17T22:18:39.024Z,6.35
2017-12-17T22:21:07.938Z,7.82
2017-12-17T22:23:36.108Z,7.78
2017-12-17T22:26:04.234Z,8.35
2017-12-17T22:28:32.357Z,6.70
2017-12-17T22:31:00.468Z,7.90
2017-12-17T22:33:28.600Z,8.35
2017-12-17T22:35:56.715Z,7.70
2017-12-17T22:38:24.843Z,8.20
2017-12-17T22:40:53.001Z,7.20
2017-12-17T22:43:21.910Z,7.18
2017-12-17T22:45:50.036Z,6.97
2017-12-17T22:48:18.149Z,8.18
2017-12-17T22:50:46.271Z,7.45
2017-12-17T22:53:14.396Z,7.97
2017-12-17T22:55:42.500Z,8.32
2017-12-17T22:58:10.657Z,8.63
2017-12-17T23:00:38.785Z,8.02
2017-12-17T23:03:06.909Z,7.15
2017-12-17T23:05:35.034Z,7.72
2017-12-17T23:08:03.149Z,8.43
2017-12-17T23:10:31.273Z,9.35
2017-12-17T23:12:59.408Z,6.78
2017-12-17T23:15:27.523Z,7.32
2017-12-17T23:17:55.680Z,8.60
2017-12-17T23:20:23.810Z,7.43
2017-12-17T23:22:51.968Z,8.98
2017-12-17T23:25:20.116Z,8.90
2017-12-17T23:27:49.029Z,8.93
2017-12-17T23:30:17.944Z,9.88
2017-12-17T23:32:46.081Z,10.50
2017-12-17T23:35:14.995Z,10.05
2017-12-17T23:37:43.108Z,9.55
2017-12-17T23:40:11.220Z,9.02
2017-12-17T23:42:40.131Z,9.82
2017-12-17T23:45:09.227Z,12.60
2017-12-17T23:47:37.360Z,11.35
2017-12-17T23:50:05.489Z,11.15
2017-12-17T23:52:33.600Z,11.07
2017-12-17T23:55:01.781Z,11.25
2017-12-17T23:57:29.924Z,10.52
2017-12-17T23:59:59.823Z,11.55
